sensor_id;sensor_type;location;lat;lon;timestamp;pressure;altitude;pressure_sealevel;temperature;humidity
49813;BME280;35706;52.100;5.056;2023-02-04T00:00:42;103329.47;;;7.55;95.21
49813;BME280;35706;52.100;5.056;2023-02-04T00:01:42;103322.59;;;7.53;95.43
49813;BME280;35706;52.100;5.056;2023-02-04T00:02:42;103326.22;;;7.49;95.79
49813;BME280;35706;52.100;5.056;2023-02-04T00:03:43;103328.78;;;7.50;96.00
49813;BME280;35706;52.100;5.056;2023-02-04T00:04:43;103330.56;;;7.50;96.03
49813;BME280;35706;52.100;5.056;2023-02-04T00:05:43;103326.31;;;7.47;96.20
49813;BME280;35706;52.100;5.056;2023-02-04T00:06:43;103330.56;;;7.50;96.36
49813;BME280;35706;52.100;5.056;2023-02-04T00:07:44;103327.09;;;7.49;96.46
49813;BME280;35706;52.100;5.056;2023-02-04T00:08:44;103326.22;;;7.49;96.51
49813;BME280;35706;52.100;5.056;2023-02-04T00:09:44;103329.13;;;7.41;96.78
49813;BME280;35706;52.100;5.056;2023-02-04T00:10:46;103326.31;;;7.47;96.86
49813;BME280;35706;52.100;5.056;2023-02-04T00:11:46;103325.50;;;7.45;96.88
49813;BME280;35706;52.100;5.056;2023-02-04T00:12:46;103318.50;;;7.46;96.97
49813;BME280;35706;52.100;5.056;2023-02-04T00:13:50;103317.47;;;7.50;96.86
49813;BME280;35706;52.100;5.056;2023-02-04T00:14:50;103313.94;;;7.51;96.88
49813;BME280;35706;52.100;5.056;2023-02-04T00:15:50;103320.09;;;7.50;96.94
49813;BME280;35706;52.100;5.056;2023-02-04T00:16:51;103322.66;;;7.51;96.97
49813;BME280;35706;52.100;5.056;2023-02-04T00:17:51;103326.13;;;7.52;96.85
49813;BME280;35706;52.100;5.056;2023-02-04T00:18:51;103328.03;;;7.47;97.06
49813;BME280;35706;52.100;5.056;2023-02-04T00:19:52;103329.13;;;7.41;97.60
49813;BME280;35706;52.100;5.056;2023-02-04T00:20:52;103332.66;;;7.40;97.64
49813;BME280;35706;52.100;5.056;2023-02-04T00:21:52;103323.03;;;7.41;97.66
49813;BME280;35706;52.100;5.056;2023-02-04T00:22:52;103324.84;;;7.39;97.95
49813;BME280;35706;52.100;5.056;2023-02-04T00:23:53;103330.16;;;7.37;98.20
49813;BME280;35706;52.100;5.056;2023-02-04T00:24:57;103322.22;;;7.39;98.10
49813;BME280;35706;52.100;5.056;2023-02-04T00:25:58;103320.53;;;7.38;98.10
49813;BME280;35706;52.100;5.056;2023-02-04T00:26:58;103314.50;;;7.36;98.40
49813;BME280;35706;52.100;5.056;2023-02-04T00:27:58;103324.22;;;7.32;98.65
49813;BME280;35706;52.100;5.056;2023-02-04T00:28:59;103319.78;;;7.34;98.68
49813;BME280;35706;52.100;5.056;2023-02-04T00:29:59;103322.31;;;7.37;98.68
49813;BME280;35706;52.100;5.056;2023-02-04T00:30:59;103328.50;;;7.34;98.63
49813;BME280;35706;52.100;5.056;2023-02-04T00:31:59;103331.97;;;7.35;98.90
49813;BME280;35706;52.100;5.056;2023-02-04T00:33:00;103326.91;;;7.30;99.00
49813;BME280;35706;52.100;5.056;2023-02-04T00:34:00;103333.78;;;7.33;98.90
49813;BME280;35706;52.100;5.056;2023-02-04T00:35:00;103329.50;;;7.30;98.99
49813;BME280;35706;52.100;5.056;2023-02-04T00:36:03;103333.19;;;7.25;99.37
49813;BME280;35706;52.100;5.056;2023-02-04T00:37:04;103333.16;;;7.26;99.45
49813;BME280;35706;52.100;5.056;2023-02-04T00:38:05;103331.38;;;7.27;99.29
49813;BME280;35706;52.100;5.056;2023-02-04T00:39:05;103333.06;;;7.28;99.45
49813;BME280;35706;52.100;5.056;2023-02-04T00:40:06;103336.59;;;7.27;99.50
49813;BME280;35706;52.100;5.056;2023-02-04T00:41:06;103337.66;;;7.21;99.80
49813;BME280;35706;52.100;5.056;2023-02-04T00:42:07;103338.47;;;7.23;99.75
49813;BME280;35706;52.100;5.056;2023-02-04T00:43:07;103344.44;;;7.27;99.82
49813;BME280;35706;52.100;5.056;2023-02-04T00:44:08;103340.19;;;7.24;99.67
49813;BME280;35706;52.100;5.056;2023-02-04T00:45:09;103339.22;;;7.27;99.66
49813;BME280;35706;52.100;5.056;2023-02-04T00:46:09;103343.66;;;7.25;99.67
49813;BME280;35706;52.100;5.056;2023-02-04T00:47:09;103344.53;;;7.24;99.62
49813;BME280;35706;52.100;5.056;2023-02-04T00:48:10;103345.41;;;7.24;99.82
49813;BME280;35706;52.100;5.056;2023-02-04T00:49:10;103348.19;;;7.20;100.00
49813;BME280;35706;52.100;5.056;2023-02-04T00:50:10;103349.09;;;7.19;100.00
49813;BME280;35706;52.100;5.056;2023-02-04T00:51:11;103345.72;;;7.15;100.00
49813;BME280;35706;52.100;5.056;2023-02-04T00:52:11;103365.78;;;7.14;100.00
49813;BME280;35706;52.100;5.056;2023-02-04T00:53:11;103354.38;;;7.17;100.00
49813;BME280;35706;52.100;5.056;2023-02-04T00:54:12;103358.78;;;7.15;100.00
49813;BME280;35706;52.100;5.056;2023-02-04T00:55:15;103358.88;;;7.13;100.00
49813;BME280;35706;52.100;5.056;2023-02-04T00:56:17;103361.41;;;7.15;100.00
49813;BME280;35706;52.100;5.056;2023-02-04T00:57:17;103356.19;;;7.15;100.00
49813;BME280;35706;52.100;5.056;2023-02-04T00:58:18;103353.63;;;7.13;100.00
49813;BME280;35706;52.100;5.056;2023-02-04T00:59:18;103358.00;;;7.13;100.00
49813;BME280;35706;52.100;5.056;2023-02-04T01:00:19;103357.91;;;7.16;100.00
49813;BME280;35706;52.100;5.056;2023-02-04T01:01:19;103357.94;;;7.14;100.00
49813;BME280;35706;52.100;5.056;2023-02-04T01:02:19;103354.56;;;7.11;100.00
49813;BME280;35706;52.100;5.056;2023-02-04T01:03:20;103364.22;;;7.09;100.00
49813;BME280;35706;52.100;5.056;2023-02-04T01:04:20;103360.03;;;7.05;100.00
49813;BME280;35706;52.100;5.056;2023-02-04T01:05:20;103364.38;;;7.04;100.00
49813;BME280;35706;52.100;5.056;2023-02-04T01:06:21;103367.72;;;7.09;100.00
49813;BME280;35706;52.100;5.056;2023-02-04T01:07:21;103369.56;;;7.06;100.00
49813;BME280;35706;52.100;5.056;2023-02-04T01:08:22;103365.16;;;7.08;100.00
49813;BME280;35706;52.100;5.056;2023-02-04T01:09:22;103358.97;;;7.10;100.00
49813;BME280;35706;52.100;5.056;2023-02-04T01:10:22;103369.56;;;7.06;100.00
49813;BME280;35706;52.100;5.056;2023-02-04T01:11:22;103371.53;;;6.99;100.00
49813;BME280;35706;52.100;5.056;2023-02-04T01:12:23;103371.53;;;6.99;100.00
49813;BME280;35706;52.100;5.056;2023-02-04T01:13:26;103376.72;;;7.01;100.00
49813;BME280;35706;52.100;5.056;2023-02-04T01:14:26;103374.13;;;7.01;100.00
49813;BME280;35706;52.100;5.056;2023-02-04T01:15:26;103375.81;;;7.02;100.00
49813;BME280;35706;52.100;5.056;2023-02-04T01:16:27;103377.53;;;7.03;100.00
49813;BME280;35706;52.100;5.056;2023-02-04T01:17:27;103375.72;;;7.05;100.00
49813;BME280;35706;52.100;5.056;2023-02-04T01:18:27;103380.09;;;7.04;100.00
49813;BME280;35706;52.100;5.056;2023-02-04T01:19:28;103374.84;;;7.04;100.00
49813;BME280;35706;52.100;5.056;2023-02-04T01:20:28;103371.28;;;7.07;100.00
49813;BME280;35706;52.100;5.056;2023-02-04T01:21:28;103367.78;;;7.08;100.00
49813;BME280;35706;52.100;5.056;2023-02-04T01:22:29;103374.00;;;7.04;100.00
49813;BME280;35706;52.100;5.056;2023-02-04T01:23:29;103374.00;;;7.04;100.00
49813;BME280;35706;52.100;5.056;2023-02-04T01:24:29;103374.84;;;7.04;100.00
49813;BME280;35706;52.100;5.056;2023-02-04T01:25:30;103382.84;;;7.00;100.00
49813;BME280;35706;52.100;5.056;2023-02-04T01:26:30;103378.38;;;7.03;100.00
49813;BME280;35706;52.100;5.056;2023-02-04T01:27:30;103384.50;;;7.02;100.00
49813;BME280;35706;52.100;5.056;2023-02-04T01:28:31;103380.00;;;7.07;100.00
49813;BME280;35706;52.100;5.056;2023-02-04T01:29:31;103391.34;;;7.06;100.00
49813;BME280;35706;52.100;5.056;2023-02-04T01:30:31;103395.03;;;7.01;100.00
49813;BME280;35706;52.100;5.056;2023-02-04T01:31:32;103394.34;;;6.94;100.00
49813;BME280;35706;52.100;5.056;2023-02-04T01:32:33;103397.69;;;6.99;100.00
49813;BME280;35706;52.100;5.056;2023-02-04T01:33:33;103398.47;;;7.03;100.00
49813;BME280;35706;52.100;5.056;2023-02-04T01:34:33;103399.25;;;7.05;100.00
49813;BME280;35706;52.100;5.056;2023-02-04T01:35:34;103395.69;;;7.07;100.00
49813;BME280;35706;52.100;5.056;2023-02-04T01:36:34;103410.41;;;7.10;100.00
49813;BME280;35706;52.100;5.056;2023-02-04T01:37:34;103408.69;;;7.09;100.00
49813;BME280;35706;52.100;5.056;2023-02-04T01:38:35;103406.97;;;7.09;100.00
49813;BME280;35706;52.100;5.056;2023-02-04T01:39:35;103409.50;;;7.11;100.00
49813;BME280;35706;52.100;5.056;2023-02-04T01:40:36;103401.66;;;7.11;100.00
49813;BME280;35706;52.100;5.056;2023-02-04T01:41:36;103407.81;;;7.10;100.00
49813;BME280;35706;52.100;5.056;2023-02-04T01:42:36;103413.88;;;7.10;100.00
49813;BME280;35706;52.100;5.056;2023-02-04T01:43:37;103413.94;;;7.09;100.00
49813;BME280;35706;52.100;5.056;2023-02-04T01:44:37;103418.97;;;7.15;100.00
49813;BME280;35706;52.100;5.056;2023-02-04T01:45:38;103410.22;;;7.16;100.00
49813;BME280;35706;52.100;5.056;2023-02-04T01:46:39;103418.16;;;7.13;100.00
49813;BME280;35706;52.100;5.056;2023-02-04T01:47:39;103408.69;;;7.09;100.00
49813;BME280;35706;52.100;5.056;2023-02-04T01:48:40;103412.91;;;7.13;100.00
49813;BME280;35706;52.100;5.056;2023-02-04T01:49:41;103405.88;;;7.15;100.00
49813;BME280;35706;52.100;5.056;2023-02-04T01:50:41;103406.88;;;7.11;100.00
49813;BME280;35706;52.100;5.056;2023-02-04T01:51:41;103407.75;;;7.11;100.00
49813;BME280;35706;52.100;5.056;2023-02-04T01:52:43;103412.06;;;7.12;100.00
49813;BME280;35706;52.100;5.056;2023-02-04T01:53:44;103407.69;;;7.13;100.00
49813;BME280;35706;52.100;5.056;2023-02-04T01:54:44;103400.75;;;7.12;100.00
49813;BME280;35706;52.100;5.056;2023-02-04T01:55:45;103406.03;;;7.10;100.00
49813;BME280;35706;52.100;5.056;2023-02-04T01:56:47;103407.00;;;7.08;100.00
49813;BME280;35706;52.100;5.056;2023-02-04T01:57:50;103407.97;;;7.05;100.00
49813;BME280;35706;52.100;5.056;2023-02-04T01:58:54;103414.00;;;7.07;100.00
49813;BME280;35706;52.100;5.056;2023-02-04T01:59:55;103409.56;;;7.09;100.00
49813;BME280;35706;52.100;5.056;2023-02-04T02:00:55;103415.81;;;7.05;100.00
49813;BME280;35706;52.100;5.056;2023-02-04T02:01:55;103419.38;;;7.03;100.00
49813;BME280;35706;52.100;5.056;2023-02-04T02:02:57;103420.22;;;7.03;100.00
49813;BME280;35706;52.100;5.056;2023-02-04T02:03:57;103420.03;;;7.09;100.00
49813;BME280;35706;52.100;5.056;2023-02-04T02:04:57;103424.19;;;7.15;100.00
49813;BME280;35706;52.100;5.056;2023-02-04T02:05:58;103421.44;;;7.20;100.00
49813;BME280;35706;52.100;5.056;2023-02-04T02:07:02;103422.25;;;7.22;100.00
49813;BME280;35706;52.100;5.056;2023-02-04T02:08:04;103423.09;;;7.22;100.00
49813;BME280;35706;52.100;5.056;2023-02-04T02:09:05;103433.56;;;7.22;100.00
49813;BME280;35706;52.100;5.056;2023-02-04T02:10:08;103430.78;;;7.27;100.00
49813;BME280;35706;52.100;5.056;2023-02-04T02:11:09;103427.22;;;7.29;100.00
49813;BME280;35706;52.100;5.056;2023-02-04T02:12:09;103428.81;;;7.33;100.00
49813;BME280;35706;52.100;5.056;2023-02-04T02:13:11;103429.66;;;7.34;100.00
49813;BME280;35706;52.100;5.056;2023-02-04T02:14:12;103423.59;;;7.33;100.00
49813;BME280;35706;52.100;5.056;2023-02-04T02:15:14;103424.38;;;7.36;100.00
49813;BME280;35706;52.100;5.056;2023-02-04T02:16:14;103422.47;;;7.41;100.00
49813;BME280;35706;52.100;5.056;2023-02-04T02:17:15;103432.13;;;7.39;100.00
49813;BME280;35706;52.100;5.056;2023-02-04T02:18:15;103430.38;;;7.39;100.00
49813;BME280;35706;52.100;5.056;2023-02-04T02:19:26;103432.28;;;7.34;100.00
49813;BME280;35706;52.100;5.056;2023-02-04T02:20:27;103425.25;;;7.36;100.00
49813;BME280;35706;52.100;5.056;2023-02-04T02:21:37;103431.56;;;7.30;100.00
49813;BME280;35706;52.100;5.056;2023-02-04T02:22:52;103429.28;;;7.20;100.00
49813;BME280;35706;52.100;5.056;2023-02-04T02:23:55;103434.03;;;7.07;100.00
49813;BME280;35706;52.100;5.056;2023-02-04T02:24:56;103422.56;;;7.11;100.00
49813;BME280;35706;52.100;5.056;2023-02-04T02:25:56;103435.56;;;7.14;100.00
49813;BME280;35706;52.100;5.056;2023-02-04T02:26:59;103431.19;;;7.14;100.00
49813;BME280;35706;52.100;5.056;2023-02-04T02:28:07;103443.25;;;7.19;100.00
49813;BME280;35706;52.100;5.056;2023-02-04T02:29:08;103436.22;;;7.21;100.00
49813;BME280;35706;52.100;5.056;2023-02-04T02:30:12;103435.22;;;7.25;100.00
49813;BME280;35706;52.100;5.056;2023-02-04T02:31:15;103439.41;;;7.30;100.00
49813;BME280;35706;52.100;5.056;2023-02-04T02:32:18;103438.59;;;7.28;100.00
49813;BME280;35706;52.100;5.056;2023-02-04T02:33:19;103437.88;;;7.23;100.00
49813;BME280;35706;52.100;5.056;2023-02-04T02:34:20;103436.19;;;7.22;100.00
49813;BME280;35706;52.100;5.056;2023-02-04T02:35:20;103440.56;;;7.22;100.00
49813;BME280;35706;52.100;5.056;2023-02-04T02:36:21;103443.19;;;7.22;100.00
49813;BME280;35706;52.100;5.056;2023-02-04T02:37:23;103433.41;;;7.27;100.00
49813;BME280;35706;52.100;5.056;2023-02-04T02:38:23;103437.59;;;7.32;100.00
49813;BME280;35706;52.100;5.056;2023-02-04T02:39:24;103442.06;;;7.29;100.00
49813;BME280;35706;52.100;5.056;2023-02-04T02:40:25;103435.00;;;7.31;100.00
49813;BME280;35706;52.100;5.056;2023-02-04T02:41:25;103434.09;;;7.32;100.00
49813;BME280;35706;52.100;5.056;2023-02-04T02:42:26;103436.66;;;7.33;100.00
49813;BME280;35706;52.100;5.056;2023-02-04T02:43:29;103439.19;;;7.37;100.00
49813;BME280;35706;52.100;5.056;2023-02-04T02:44:31;103435.91;;;7.30;100.00
49813;BME280;35706;52.100;5.056;2023-02-04T02:45:32;103435.84;;;7.31;100.00
49813;BME280;35706;52.100;5.056;2023-02-04T02:46:33;103429.75;;;7.32;100.00
49813;BME280;35706;52.100;5.056;2023-02-04T02:47:33;103432.59;;;7.25;100.00
49813;BME280;35706;52.100;5.056;2023-02-04T02:48:34;103436.63;;;7.35;100.00
49813;BME280;35706;52.100;5.056;2023-02-04T02:49:34;103430.53;;;7.34;100.00
49813;BME280;35706;52.100;5.056;2023-02-04T02:50:36;103443.75;;;7.30;100.00
49813;BME280;35706;52.100;5.056;2023-02-04T02:51:37;103444.75;;;7.26;100.00
49813;BME280;35706;52.100;5.056;2023-02-04T02:52:37;103445.69;;;7.25;100.00
49813;BME280;35706;52.100;5.056;2023-02-04T02:53:37;103445.56;;;7.28;100.00
49813;BME280;35706;52.100;5.056;2023-02-04T02:54:38;103453.28;;;7.32;100.00
49813;BME280;35706;52.100;5.056;2023-02-04T02:55:40;103450.94;;;7.23;100.00
49813;BME280;35706;52.100;5.056;2023-02-04T02:56:40;103450.00;;;7.26;100.00
49813;BME280;35706;52.100;5.056;2023-02-04T02:57:41;103450.75;;;7.29;100.00
49813;BME280;35706;52.100;5.056;2023-02-04T02:58:41;103446.69;;;7.21;100.00
49813;BME280;35706;52.100;5.056;2023-02-04T02:59:42;103442.28;;;7.21;100.00
49813;BME280;35706;52.100;5.056;2023-02-04T03:00:42;103448.13;;;7.29;100.00
49813;BME280;35706;52.100;5.056;2023-02-04T03:01:47;103450.94;;;7.23;100.00
49813;BME280;35706;52.100;5.056;2023-02-04T03:03:00;103451.75;;;7.25;100.00
49813;BME280;35706;52.100;5.056;2023-02-04T03:04:03;103450.91;;;7.25;100.00
49813;BME280;35706;52.100;5.056;2023-02-04T03:05:03;103451.97;;;7.19;100.00
49813;BME280;35706;52.100;5.056;2023-02-04T03:06:13;103457.09;;;7.22;100.00
49813;BME280;35706;52.100;5.056;2023-02-04T03:07:15;103453.69;;;7.20;100.00
49813;BME280;35706;52.100;5.056;2023-02-04T03:08:17;103449.53;;;7.13;100.00
49813;BME280;35706;52.100;5.056;2023-02-04T03:09:19;103447.72;;;7.15;100.00
49813;BME280;35706;52.100;5.056;2023-02-04T03:10:19;103449.53;;;7.13;100.00
49813;BME280;35706;52.100;5.056;2023-02-04T03:11:20;103455.56;;;7.15;100.00
49813;BME280;35706;52.100;5.056;2023-02-04T03:12:23;103452.88;;;7.18;100.00
49813;BME280;35706;52.100;5.056;2023-02-04T03:13:24;103449.44;;;7.16;100.00
49813;BME280;35706;52.100;5.056;2023-02-04T03:14:25;103449.53;;;7.13;100.00
49813;BME280;35706;52.100;5.056;2023-02-04T03:15:26;103447.72;;;7.15;100.00
49813;BME280;35706;52.100;5.056;2023-02-04T03:16:28;103451.41;;;7.09;100.00
49813;BME280;35706;52.100;5.056;2023-02-04T03:17:29;103450.53;;;7.09;100.00
49813;BME280;35706;52.100;5.056;2023-02-04T03:18:30;103449.66;;;7.10;100.00
49813;BME280;35706;52.100;5.056;2023-02-04T03:19:32;103448.81;;;7.09;100.00
49813;BME280;35706;52.100;5.056;2023-02-04T03:20:32;103446.28;;;7.06;100.00
49813;BME280;35706;52.100;5.056;2023-02-04T03:21:34;103449.66;;;7.10;100.00
49813;BME280;35706;52.100;5.056;2023-02-04T03:22:34;103453.31;;;7.04;100.00
49813;BME280;35706;52.100;5.056;2023-02-04T03:23:35;103445.72;;;6.97;100.00
49813;BME280;35706;52.100;5.056;2023-02-04T03:24:36;103444.78;;;6.99;100.00
49813;BME280;35706;52.100;5.056;2023-02-04T03:25:37;103449.16;;;6.99;100.00
49813;BME280;35706;52.100;5.056;2023-02-04T03:26:37;103442.41;;;6.90;100.00
49813;BME280;35706;52.100;5.056;2023-02-04T03:27:38;103450.28;;;6.90;100.00
49813;BME280;35706;52.100;5.056;2023-02-04T03:28:39;103451.22;;;6.87;100.00
49813;BME280;35706;52.100;5.056;2023-02-04T03:29:44;103446.00;;;6.87;100.00
49813;BME280;35706;52.100;5.056;2023-02-04T03:30:45;103454.47;;;6.96;100.00
49813;BME280;35706;52.100;5.056;2023-02-04T03:31:55;103455.13;;;7.02;100.00
49813;BME280;35706;52.100;5.056;2023-02-04T03:32:56;103454.19;;;7.05;100.00
49813;BME280;35706;52.100;5.056;2023-02-04T03:33:56;103448.00;;;7.07;100.00
49813;BME280;35706;52.100;5.056;2023-02-04T03:34:56;103455.94;;;7.04;100.00
49813;BME280;35706;52.100;5.056;2023-02-04T03:35:57;103456.81;;;7.05;100.00
49813;BME280;35706;52.100;5.056;2023-02-04T03:36:57;103444.47;;;7.08;100.00
49813;BME280;35706;52.100;5.056;2023-02-04T03:37:58;103450.66;;;7.06;100.00
49813;BME280;35706;52.100;5.056;2023-02-04T03:38:59;103456.84;;;7.03;100.00
49813;BME280;35706;52.100;5.056;2023-02-04T03:39:59;103450.84;;;7.00;100.00
49813;BME280;35706;52.100;5.056;2023-02-04T03:40:59;103454.06;;;7.08;100.00
49813;BME280;35706;52.100;5.056;2023-02-04T03:42:00;103449.53;;;6.86;100.00
49813;BME280;35706;52.100;5.056;2023-02-04T03:43:00;103451.38;;;6.83;100.00
49813;BME280;35706;52.100;5.056;2023-02-04T03:44:00;103454.09;;;6.80;100.00
49813;BME280;35706;52.100;5.056;2023-02-04T03:45:00;103447.88;;;6.84;100.00
49813;BME280;35706;52.100;5.056;2023-02-04T03:46:01;103439.81;;;6.90;100.00
49813;BME280;35706;52.100;5.056;2023-02-04T03:47:01;103447.53;;;6.95;100.00
49813;BME280;35706;52.100;5.056;2023-02-04T03:48:01;103446.63;;;6.96;100.00
49813;BME280;35706;52.100;5.056;2023-02-04T03:49:02;103447.47;;;6.96;100.00
49813;BME280;35706;52.100;5.056;2023-02-04T03:50:03;103446.47;;;7.00;100.00
49813;BME280;35706;52.100;5.056;2023-02-04T03:51:04;103449.22;;;6.96;100.00
49813;BME280;35706;52.100;5.056;2023-02-04T03:52:04;103449.59;;;6.83;100.00
49813;BME280;35706;52.100;5.056;2023-02-04T03:53:05;103453.69;;;6.92;100.00
49813;BME280;35706;52.100;5.056;2023-02-04T03:54:05;103446.66;;;6.94;100.00
49813;BME280;35706;52.100;5.056;2023-02-04T03:55:05;103454.56;;;6.92;100.00
49813;BME280;35706;52.100;5.056;2023-02-04T03:56:06;103440.88;;;6.84;100.00
49813;BME280;35706;52.100;5.056;2023-02-04T03:57:06;103452.94;;;6.88;100.00
49813;BME280;35706;52.100;5.056;2023-02-04T03:58:07;103455.66;;;6.85;100.00
49813;BME280;35706;52.100;5.056;2023-02-04T03:59:07;103451.81;;;6.97;100.00
49813;BME280;35706;52.100;5.056;2023-02-04T04:00:08;103448.38;;;6.95;100.00
49813;BME280;35706;52.100;5.056;2023-02-04T04:01:09;103452.47;;;7.04;100.00
49813;BME280;35706;52.100;5.056;2023-02-04T04:02:09;103455.13;;;7.02;100.00
49813;BME280;35706;52.100;5.056;2023-02-04T04:03:09;103448.16;;;7.03;100.00
49813;BME280;35706;52.100;5.056;2023-02-04T04:04:10;103453.28;;;7.06;100.00
49813;BME280;35706;52.100;5.056;2023-02-04T04:05:10;103456.81;;;7.05;100.00
49813;BME280;35706;52.100;5.056;2023-02-04T04:06:10;103454.22;;;7.03;100.00
49813;BME280;35706;52.100;5.056;2023-02-04T04:07:11;103458.00;;;6.95;100.00
49813;BME280;35706;52.100;5.056;2023-02-04T04:08:11;103455.19;;;7.01;100.00
49813;BME280;35706;52.100;5.056;2023-02-04T04:09:12;103449.16;;;6.99;100.00
49813;BME280;35706;52.100;5.056;2023-02-04T04:10:12;103452.56;;;7.01;100.00
49813;BME280;35706;52.100;5.056;2023-02-04T04:11:12;103446.38;;;7.03;100.00
49813;BME280;35706;52.100;5.056;2023-02-04T04:12:13;103452.47;;;7.04;100.00
49813;BME280;35706;52.100;5.056;2023-02-04T04:13:13;103456.84;;;7.03;100.00
49813;BME280;35706;52.100;5.056;2023-02-04T04:14:13;103459.50;;;7.02;100.00
49813;BME280;35706;52.100;5.056;2023-02-04T04:15:14;103461.13;;;7.06;100.00
49813;BME280;35706;52.100;5.056;2023-02-04T04:16:14;103461.91;;;7.08;100.00
49813;BME280;35706;52.100;5.056;2023-02-04T04:17:14;103465.50;;;7.05;100.00
49813;BME280;35706;52.100;5.056;2023-02-04T04:18:15;103463.63;;;7.09;100.00
49813;BME280;35706;52.100;5.056;2023-02-04T04:19:15;103466.44;;;7.03;100.00
49813;BME280;35706;52.100;5.056;2023-02-04T04:20:16;103467.25;;;7.05;100.00
49813;BME280;35706;52.100;5.056;2023-02-04T04:21:16;103465.75;;;6.96;100.00
49813;BME280;35706;52.100;5.056;2023-02-04T04:22:16;103474.53;;;6.95;100.00
49813;BME280;35706;52.100;5.056;2023-02-04T04:23:16;103475.50;;;6.92;100.00
49813;BME280;35706;52.100;5.056;2023-02-04T04:24:17;103470.25;;;6.92;100.00
49813;BME280;35706;52.100;5.056;2023-02-04T04:25:17;103477.28;;;6.90;100.00
49813;BME280;35706;52.100;5.056;2023-02-04T04:26:17;103480.78;;;6.89;100.00
49813;BME280;35706;52.100;5.056;2023-02-04T04:27:18;103478.03;;;6.94;100.00
49813;BME280;35706;52.100;5.056;2023-02-04T04:28:18;103482.44;;;6.92;100.00
49813;BME280;35706;52.100;5.056;2023-02-04T04:29:18;103469.31;;;6.95;100.00
49813;BME280;35706;52.100;5.056;2023-02-04T04:30:19;103475.34;;;6.97;100.00
49813;BME280;35706;52.100;5.056;2023-02-04T04:31:19;103469.00;;;7.04;100.00
49813;BME280;35706;52.100;5.056;2023-02-04T04:32:19;103463.03;;;7.01;100.00
49813;BME280;35706;52.100;5.056;2023-02-04T04:33:20;103471.63;;;7.04;100.00
49813;BME280;35706;52.100;5.056;2023-02-04T04:34:20;103468.19;;;7.02;100.00
49813;BME280;35706;52.100;5.056;2023-02-04T04:35:20;103466.38;;;7.04;100.00
49813;BME280;35706;52.100;5.056;2023-02-04T04:36:20;103459.47;;;7.03;100.00
49813;BME280;35706;52.100;5.056;2023-02-04T04:37:21;103462.06;;;7.03;100.00
49813;BME280;35706;52.100;5.056;2023-02-04T04:38:21;103461.59;;;6.90;100.00
49813;BME280;35706;52.100;5.056;2023-02-04T04:39:21;103463.84;;;6.73;100.00
49813;BME280;35706;52.100;5.056;2023-02-04T04:40:22;103468.06;;;6.79;100.00
49813;BME280;35706;52.100;5.056;2023-02-04T04:41:22;103469.31;;;6.67;100.00
49813;BME280;35706;52.100;5.056;2023-02-04T04:42:22;103468.31;;;6.71;100.00
49813;BME280;35706;52.100;5.056;2023-02-04T04:43:23;103476.22;;;6.68;100.00
49813;BME280;35706;52.100;5.056;2023-02-04T04:44:23;103478.13;;;6.63;100.00
49813;BME280;35706;52.100;5.056;2023-02-04T04:45:23;103486.81;;;6.63;100.00
49813;BME280;35706;52.100;5.056;2023-02-04T04:46:24;103481.63;;;6.62;100.00
49813;BME280;35706;52.100;5.056;2023-02-04T04:47:24;103482.38;;;6.67;100.00
49813;BME280;35706;52.100;5.056;2023-02-04T04:48:24;103479.66;;;6.70;100.00
49813;BME280;35706;52.100;5.056;2023-02-04T04:49:25;103484.69;;;6.76;100.00
49813;BME280;35706;52.100;5.056;2023-02-04T04:50:25;103478.69;;;6.72;100.00
49813;BME280;35706;52.100;5.056;2023-02-04T04:51:26;103479.66;;;6.70;100.00
49813;BME280;35706;52.100;5.056;2023-02-04T04:52:26;103482.59;;;6.59;100.00
49813;BME280;35706;52.100;5.056;2023-02-04T04:53:26;103484.97;;;6.67;100.00
49813;BME280;35706;52.100;5.056;2023-02-04T04:54:26;103477.88;;;6.70;100.00
49813;BME280;35706;52.100;5.056;2023-02-04T04:55:27;103482.25;;;6.70;100.00
49813;BME280;35706;52.100;5.056;2023-02-04T04:56:27;103478.66;;;6.74;100.00
49813;BME280;35706;52.100;5.056;2023-02-04T04:57:27;103469.59;;;6.86;100.00
49813;BME280;35706;52.100;5.056;2023-02-04T04:58:28;103473.09;;;6.85;100.00
49813;BME280;35706;52.100;5.056;2023-02-04T04:59:30;103480.94;;;6.85;100.00
49813;BME280;35706;52.100;5.056;2023-02-04T05:00:34;103475.81;;;6.82;100.00
49813;BME280;35706;52.100;5.056;2023-02-04T05:01:34;103474.56;;;6.65;100.00
49813;BME280;35706;52.100;5.056;2023-02-04T05:02:35;103478.97;;;6.63;100.00
49813;BME280;35706;52.100;5.056;2023-02-04T05:03:35;103479.75;;;6.67;100.00
49813;BME280;35706;52.100;5.056;2023-02-04T05:04:35;103488.41;;;6.69;100.00
49813;BME280;35706;52.100;5.056;2023-02-04T05:05:36;103483.88;;;6.74;100.00
49813;BME280;35706;52.100;5.056;2023-02-04T05:06:41;103483.03;;;6.73;100.00
49813;BME280;35706;52.100;5.056;2023-02-04T05:07:42;103485.91;;;6.64;100.00
49813;BME280;35706;52.100;5.056;2023-02-04T05:08:42;103488.69;;;6.58;100.00
49813;BME280;35706;52.100;5.056;2023-02-04T05:09:42;103485.09;;;6.62;100.00
49813;BME280;35706;52.100;5.056;2023-02-04T05:10:43;103491.44;;;6.53;100.00
49813;BME280;35706;52.100;5.056;2023-02-04T05:11:43;103484.09;;;6.37;100.00
49813;BME280;35706;52.100;5.056;2023-02-04T05:12:46;103483.88;;;6.44;100.00
49813;BME280;35706;52.100;5.056;2023-02-04T05:13:47;103483.75;;;6.49;100.00
49813;BME280;35706;52.100;5.056;2023-02-04T05:14:47;103483.63;;;6.53;100.00
49813;BME280;35706;52.100;5.056;2023-02-04T05:15:47;103485.34;;;6.55;100.00
49813;BME280;35706;52.100;5.056;2023-02-04T05:16:48;103490.00;;;6.43;100.00
49813;BME280;35706;52.100;5.056;2023-02-04T05:17:48;103488.31;;;6.42;100.00
49813;BME280;35706;52.100;5.056;2023-02-04T05:18:51;103485.81;;;6.38;100.00
49813;BME280;35706;52.100;5.056;2023-02-04T05:19:54;103497.34;;;6.30;100.00